Time;durP1;ratioP1;P1;durP2;ratioP2;P2;SDS_P1;SDS_P2;PMS_P1;PMS_P2;Temp;Humidity;BMP_temperature;BMP_pressure;BME280_temperature;BME280_humidity;BME280_pressure;Samples;Min_cycle;Max_cycle;Signal;HPM_P1;HPM_P2
2022/01/27 00:04:37;;;;;;;7.13;5.20;;;;;;;9.27;97.28;101798.25;5051304;28;20043;-79
2022/01/27 00:08:16;;;;;;;29.42;12.85;;;;;;;9.28;97.28;101795.19;5046399;28;20048;-79
2022/01/27 00:11:46;;;;;;;;;;;;;;;;;;;;;
2022/01/27 00:15:09;;;;;;;5.68;3.95;;;;;;;9.32;97.97;101787.09;4918557;29;20075;-79
2022/01/27 00:18:49;;;;;;;;;;;;;;;;;;;;;
2022/01/27 00:22:11;;;;;;;4.65;3.72;;;;;;;9.36;97.70;101790.88;4911745;29;20056;-78
2022/01/27 00:25:05;;;;;;;;;;;;;;;;;;;;;
2022/01/27 00:28:05;;;;;;;5.45;4.55;;;;;;;9.40;97.98;101797.41;4919780;29;20170;-78
2022/01/27 00:31:42;;;;;;;4.78;3.47;;;;;;;9.43;98.89;101796.78;5050061;28;20041;-79
2022/01/27 00:34:47;;;;;;;3.60;3.30;;;;;;;9.46;99.14;101796.97;5053859;28;20060;-79
2022/01/27 00:37:46;;;;;;;5.55;3.00;;;;;;;9.49;98.67;101795.53;4991065;28;20050;-78
2022/01/27 00:41:21;;;;;;;;;;;;;;;;;;;;;
2022/01/27 00:44:49;;;;;;;3.50;2.72;;;;;;;9.54;98.60;101798.19;4992988;28;20396;-78
2022/01/27 00:48:04;;;;;;;;;;;;;;;;;;;;;
2022/01/27 00:51:24;;;;;;;4.03;2.67;;;;;;;9.59;98.74;101809.09;4959590;28;20177;-78
2022/01/27 01:00:57;;;;;;;2.40;2.20;;;;;;;9.65;99.17;101810.63;4976326;28;20046;-79
2022/01/27 01:04:23;;;;;;;3.28;2.22;;;;;;;9.67;99.67;101822.19;4975544;28;20050;-79
2022/01/27 01:07:35;;;;;;;6.53;2.53;;;;;;;9.68;99.21;101821.06;4976050;28;20179;-79
2022/01/27 01:17:25;;;;;;;3.25;2.53;;;;;;;9.69;99.41;101822.69;5040102;28;20142;-78
2022/01/27 01:30:32;;;;;;;;;;;;;;;;;;;;;
2022/01/27 01:34:30;;;;;;;;;;;;;;;;;;;;;
2022/01/27 01:37:54;;;;;;;2.90;2.60;;;;;;;9.70;100.00;101800.28;5006915;28;20057;-78
2022/01/27 01:40:44;;;;;;;2.92;2.58;;;;;;;9.70;100.00;101802.22;5036916;28;20056;-78
2022/01/27 01:43:44;;;;;;;3.83;3.05;;;;;;;9.72;100.00;101806.28;5034857;28;20438;-79
2022/01/27 01:47:25;;;;;;;3.88;2.85;;;;;;;9.73;100.00;101801.59;5020418;28;20136;-78
2022/01/27 01:50:41;;;;;;;3.03;2.42;;;;;;;9.74;100.00;101804.03;4957673;28;20086;-78
2022/01/27 02:02:14;;;;;;;;;;;;;;;;;;;;;
2022/01/27 02:09:23;;;;;;;3.13;2.45;;;;;;;9.76;100.00;101812.84;4833928;29;20078;-78
2022/01/27 02:20:34;;;;;;;2.38;2.08;;;;;;;9.79;100.00;101806.66;4946155;28;20125;-78
2022/01/27 02:24:02;;;;;;;;;;;;;;;;;;;;;
2022/01/27 02:27:00;;;;;;;2.88;2.17;;;;;;;9.80;100.00;101807.50;5028291;28;20088;-79
2022/01/27 02:29:59;;;;;;;3.35;1.88;;;;;;;9.81;100.00;101806.38;5029149;28;20048;-79
2022/01/27 02:33:06;;;;;;;2.55;1.98;;;;;;;9.82;100.00;101804.44;4990854;28;20063;-79
2022/01/27 02:35:55;;;;;;;3.53;2.72;;;;;;;9.83;100.00;101812.41;5017366;28;20056;-79
2022/01/27 02:38:27;;;;;;;2.97;2.65;;;;;;;9.84;100.00;101807.69;5017936;28;20073;-79
2022/01/27 02:41:05;;;;;;;2.33;2.13;;;;;;;9.84;100.00;101815.97;5033885;28;20032;-78
2022/01/27 02:43:32;;;;;;;2.08;1.92;;;;;;;9.84;100.00;101814.03;5051557;28;20044;-78
2022/01/27 02:46:09;;;;;;;2.38;2.17;;;;;;;9.84;100.00;101804.91;5035610;28;20051;-79
2022/01/27 02:48:44;;;;;;;3.00;2.40;;;;;;;9.86;100.00;101819.25;5019146;28;20076;-78
2022/01/27 02:51:11;;;;;;;2.58;2.15;;;;;;;9.87;100.00;101818.94;5035759;28;20043;-78
2022/01/27 02:53:38;;;;;;;2.08;1.92;;;;;;;9.86;100.00;101813.72;5020350;28;20525;-79
2022/01/27 02:56:05;;;;;;;2.70;2.50;;;;;;;9.85;100.00;101804.59;5035138;28;20060;-79
2022/01/27 02:58:32;;;;;;;2.53;2.15;;;;;;;9.87;100.00;101809.81;5034022;28;20104;-78
2022/01/27 03:01:07;;;;;;;2.25;1.90;;;;;;;9.87;100.00;101810.66;5033818;28;20103;-79
2022/01/27 03:03:34;;;;;;;2.30;2.10;;;;;;;9.88;100.00;101817.78;5035903;28;20044;-78
2022/01/27 03:06:04;;;;;;;1.95;1.67;;;;;;;9.89;100.00;101811.16;5035100;28;21788;-78
2022/01/27 03:08:32;;;;;;;2.47;2.05;;;;;;;9.89;100.00;101810.31;5035599;28;20215;-78
2022/01/27 03:11:06;;;;;;;5.80;2.10;;;;;;;9.90;100.00;101815.53;5034529;28;20033;-79
2022/01/27 03:13:33;;;;;;;2.63;2.30;;;;;;;9.91;100.00;101802.53;5037573;28;20495;-78
2022/01/27 03:16:00;;;;;;;2.30;2.10;;;;;;;9.91;100.00;101808.88;5035113;28;20975;-79
2022/01/27 03:18:27;;;;;;;5.05;2.60;;;;;;;9.90;100.00;101798.94;5034365;28;20178;-79
2022/01/27 03:20:57;;;;;;;2.22;2.03;;;;;;;9.91;100.00;101797.81;5029723;28;20493;-79
2022/01/27 03:23:24;;;;;;;2.83;2.40;;;;;;;9.92;100.00;101801.41;5032837;28;20056;-78
2022/01/27 03:25:51;;;;;;;3.10;2.40;;;;;;;9.93;100.00;101795.53;5036424;28;20475;-78
2022/01/27 03:28:19;;;;;;;4.47;2.50;;;;;;;9.94;100.00;101808.25;5036146;28;20486;-79
2022/01/27 03:30:49;;;;;;;2.83;2.35;;;;;;;9.95;100.00;101798.81;5034335;28;20045;-78
2022/01/27 03:33:16;;;;;;;3.55;2.30;;;;;;;9.96;100.00;101802.38;5018569;28;20068;-79
2022/01/27 03:35:43;;;;;;;3.28;2.35;;;;;;;9.96;100.00;101800.44;5035227;28;20033;-78
2022/01/27 03:38:10;;;;;;;2.67;1.95;;;;;;;9.98;100.00;101809.25;5031816;28;20049;-79
2022/01/27 03:40:38;;;;;;;2.15;1.83;;;;;;;9.97;100.00;101798.50;5032683;28;20136;-78
2022/01/27 03:43:06;;;;;;;2.30;1.70;;;;;;;9.95;100.00;101809.06;5034482;28;20033;-78
2022/01/27 03:45:33;;;;;;;2.15;1.58;;;;;;;9.91;100.00;101814.41;5018943;28;20045;-79
2022/01/27 03:48:00;;;;;;;1.70;1.10;;;;;;;9.90;100.00;101818.28;5016686;28;20062;-79
2022/01/27 03:50:28;;;;;;;1.70;1.00;;;;;;;9.90;100.00;101807.22;5018374;28;20042;-79
2022/01/27 03:52:54;;;;;;;1.17;0.85;;;;;;;9.92;100.00;101806.94;5035065;28;20525;-79
2022/01/27 03:55:21;;;;;;;1.00;0.90;;;;;;;9.90;100.00;101818.28;5033940;28;20964;-78
2022/01/27 03:57:48;;;;;;;1.05;0.95;;;;;;;9.92;100.00;101818.81;5033630;28;20390;-78
2022/01/27 04:00:16;;;;;;;0.60;0.60;;;;;;;9.92;100.00;101821.59;5031322;28;20033;-79
2022/01/27 04:02:56;;;;;;;0.50;0.50;;;;;;;9.91;100.00;101825.47;5033630;28;20033;-78
2022/01/27 04:05:23;;;;;;;0.50;0.50;;;;;;;9.91;100.00;101819.13;5036233;28;20033;-79
2022/01/27 04:07:56;;;;;;;1.95;0.40;;;;;;;9.90;100.00;101811.97;5016015;28;20044;-79
2022/01/27 04:10:23;;;;;;;0.40;0.30;;;;;;;9.85;100.00;101821.19;5031351;28;20080;-79
2022/01/27 04:12:50;;;;;;;0.40;0.30;;;;;;;9.81;100.00;101820.19;5033008;28;20523;-79
2022/01/27 04:15:17;;;;;;;1.17;0.65;;;;;;;9.85;100.00;101831.47;5031461;28;20044;-78
2022/01/27 04:17:44;;;;;;;0.60;0.25;;;;;;;9.83;100.00;101829.00;5034378;28;20060;-78
2022/01/27 04:20:12;;;;;;;2.00;0.40;;;;;;;9.85;100.00;101835.00;5018784;28;20398;-79
2022/01/27 04:22:38;;;;;;;0.68;0.40;;;;;;;9.84;100.00;101829.81;5037284;28;20041;-78
2022/01/27 04:25:07;;;;;;;1.48;0.30;;;;;;;9.85;100.00;101835.00;5039104;28;20033;-79
2022/01/27 04:27:37;;;;;;;0.30;0.30;;;;;;;9.84;100.00;101838.94;5036569;28;20040;-78
2022/01/27 04:30:15;;;;;;;0.80;0.30;;;;;;;9.85;100.00;101843.31;5019501;28;21019;-79
2022/01/27 04:32:51;;;;;;;1.48;0.40;;;;;;;9.84;100.00;101838.94;5035104;28;20057;-78
2022/01/27 04:35:21;;;;;;;1.67;0.52;;;;;;;9.82;100.00;101839.22;5021347;28;20410;-79
2022/01/27 04:45:53;;;;;;;2.03;0.68;;;;;;;9.77;100.00;101860.66;5036350;28;20057;-79
2022/01/27 04:48:22;;;;;;;5.65;0.75;;;;;;;9.75;100.00;101866.50;5038051;28;20063;-78
2022/01/27 04:50:51;;;;;;;4.20;1.65;;;;;;;9.72;100.00;101863.53;5037647;28;20040;-79
2022/01/27 04:53:29;;;;;;;2.95;0.52;;;;;;;9.71;100.00;101859.16;5036957;28;20037;-78
2022/01/27 04:56:16;;;;;;;1.33;0.40;;;;;;;9.70;100.00;101865.81;5035645;28;20549;-79
2022/01/27 04:58:46;;;;;;;2.88;0.60;;;;;;;9.67;100.00;101870.00;5038686;28;20038;-79
2022/01/27 05:01:15;;;;;;;1.27;0.40;;;;;;;9.63;99.89;101868.19;5036208;28;20037;-78
2022/01/27 05:06:10;;;;;;;0.68;0.50;;;;;;;9.59;99.49;101872.69;5037451;28;20028;-79
2022/01/27 05:08:37;;;;;;;1.90;0.50;;;;;;;9.57;99.43;101884.06;5037283;28;20052;-78
2022/01/27 05:11:12;;;;;;;1.73;0.57;;;;;;;9.58;99.50;101888.47;5037760;28;20057;-79
2022/01/27 05:13:53;;;;;;;4.00;0.95;;;;;;;9.56;99.22;101876.09;5037831;28;20045;-79
2022/01/27 05:16:20;;;;;;;7.45;0.85;;;;;;;9.57;99.00;101891.56;5035318;28;20037;-79
2022/01/27 05:18:47;;;;;;;5.93;0.77;;;;;;;9.58;99.17;101887.66;5038812;28;20029;-79
2022/01/27 05:21:14;;;;;;;2.20;0.70;;;;;;;9.55;98.99;101882.75;5018713;28;20065;-78
2022/01/27 05:23:41;;;;;;;6.07;0.90;;;;;;;9.56;98.85;101878.84;5039271;28;20382;-78
2022/01/27 05:26:09;;;;;;;13.65;2.55;;;;;;;9.57;98.76;101886.03;5032847;28;20037;-79
2022/01/27 05:28:39;;;;;;;5.72;2.30;;;;;;;9.59;98.55;101894.81;5035725;28;20764;-79
2022/01/27 05:31:06;;;;;;;4.38;0.90;;;;;;;9.56;98.61;101889.91;5030362;28;20091;-78
2022/01/27 05:33:34;;;;;;;3.00;0.95;;;;;;;9.54;98.75;101897.69;5038985;28;20037;-79
2022/01/27 05:36:03;;;;;;;2.40;0.80;;;;;;;9.53;98.66;101899.63;5035249;28;20134;-78
2022/01/27 05:38:30;;;;;;;4.72;0.57;;;;;;;9.52;98.71;101900.78;5020480;28;20092;-79
2022/01/27 05:40:57;;;;;;;4.82;1.20;;;;;;;9.53;98.73;101896.09;5033825;28;20583;-79
2022/01/27 05:43:24;;;;;;;3.97;1.17;;;;;;;9.54;98.51;101892.16;5039012;28;20422;-79
2022/01/27 05:45:52;;;;;;;2.13;0.85;;;;;;;9.53;98.23;101890.56;5019939;28;20037;-79
2022/01/27 05:48:18;;;;;;;6.00;0.80;;;;;;;9.52;98.22;101889.72;5037297;28;20040;-79
2022/01/27 05:50:45;;;;;;;2.88;0.95;;;;;;;9.50;97.93;101893.94;5020789;28;20770;-78
2022/01/27 05:53:15;;;;;;;5.28;1.10;;;;;;;9.48;97.62;101899.75;5037518;28;20044;-79
2022/01/27 05:55:45;;;;;;;5.55;1.08;;;;;;;9.44;97.67;101893.22;5032165;28;20514;-78
2022/01/27 05:58:12;;;;;;;10.48;1.80;;;;;;;9.41;97.65;101910.41;5032831;28;20279;-78
2022/01/27 06:00:39;;;;;;;7.25;1.88;;;;;;;9.34;97.30;101910.03;5037527;28;20043;-78
2022/01/27 06:03:05;;;;;;;5.28;1.05;;;;;;;9.32;97.44;101914.22;5037479;28;20037;-78
2022/01/27 06:05:33;;;;;;;7.03;1.23;;;;;;;9.29;97.11;101914.84;5036749;28;20041;-79
2022/01/27 06:08:00;;;;;;;6.43;1.17;;;;;;;9.22;97.33;101917.19;5034668;28;20052;-78
2022/01/27 06:10:27;;;;;;;4.38;1.42;;;;;;;9.18;96.98;101911.47;5037198;28;20049;-78
2022/01/27 06:12:58;;;;;;;5.50;1.05;;;;;;;9.13;96.96;101909.59;5036746;28;20031;-79
2022/01/27 06:15:26;;;;;;;9.07;1.88;;;;;;;9.09;97.00;101905.00;5035716;28;20050;-79
2022/01/27 06:17:54;;;;;;;7.07;1.42;;;;;;;9.05;97.07;101915.06;5035450;28;20478;-78
2022/01/27 06:20:21;;;;;;;7.78;1.55;;;;;;;9.03;97.03;101907.06;5033250;28;20041;-78
2022/01/27 06:22:48;;;;;;;8.05;2.38;;;;;;;9.04;97.19;101916.16;5035566;28;20037;-78
2022/01/27 06:25:16;;;;;;;6.80;1.02;;;;;;;9.04;96.90;101919.75;5036188;28;20056;-79
2022/01/27 06:27:43;;;;;;;5.45;1.08;;;;;;;9.03;96.95;101934.69;5034272;28;20033;-78
2022/01/27 06:30:13;;;;;;;14.25;1.98;;;;;;;9.05;97.03;101934.38;5035689;28;20025;-79
2022/01/27 06:32:41;;;;;;;6.93;1.27;;;;;;;9.04;97.17;101943.78;5037584;28;20043;-79
2022/01/27 06:35:08;;;;;;;4.55;1.10;;;;;;;9.05;97.12;101957.28;5019238;28;20042;-79
2022/01/27 06:37:36;;;;;;;8.50;1.52;;;;;;;9.07;97.24;101960.59;5032783;28;20522;-78
2022/01/27 06:40:05;;;;;;;9.88;1.75;;;;;;;9.06;97.00;101972.75;5036658;28;20037;-79
2022/01/27 06:42:32;;;;;;;18.80;2.05;;;;;;;9.09;96.96;101974.06;5020024;28;20045;-79
2022/01/27 06:44:59;;;;;;;7.78;1.17;;;;;;;9.08;96.66;101978.78;5017662;28;20075;-79
2022/01/27 06:47:26;;;;;;;12.07;1.48;;;;;;;9.10;96.45;101982.06;5034174;28;20056;-78
2022/01/27 06:49:53;;;;;;;7.15;2.03;;;;;;;9.10;96.36;101982.06;5036012;28;20038;-78
2022/01/27 06:52:21;;;;;;;8.60;1.30;;;;;;;9.13;96.28;101989.72;5037546;28;20033;-78
2022/01/27 06:54:50;;;;;;;10.02;1.65;;;;;;;9.13;96.15;101998.00;5034417;28;20399;-79
2022/01/27 06:57:16;;;;;;;7.70;1.10;;;;;;;9.13;95.99;102003.53;5034170;28;20044;-78
2022/01/27 06:59:43;;;;;;;9.30;1.95;;;;;;;9.13;95.62;102008.28;5036014;28;20048;-79
2022/01/27 07:02:11;;;;;;;14.32;2.80;;;;;;;9.14;95.92;102004.38;5035164;28;20049;-78
2022/01/27 07:04:38;;;;;;;12.95;1.50;;;;;;;9.14;95.76;102021.75;5036264;28;20041;-78
2022/01/27 07:07:05;;;;;;;8.13;1.13;;;;;;;9.13;95.34;102014.59;5037838;28;20045;-78
2022/01/27 07:09:32;;;;;;;5.22;1.40;;;;;;;9.11;95.12;102019.59;5036844;28;20077;-79
2022/01/27 07:11:59;;;;;;;7.57;1.25;;;;;;;9.09;94.46;102023.78;5037250;28;20045;-79
2022/01/27 07:14:26;;;;;;;5.88;1.33;;;;;;;9.09;94.44;102035.69;5036048;28;20041;-78
2022/01/27 07:16:53;;;;;;;7.15;1.55;;;;;;;9.07;94.36;102026.88;5018479;28;20044;-78
2022/01/27 07:19:20;;;;;;;12.45;2.13;;;;;;;9.05;93.85;102034.63;5030683;28;20056;-79
2022/01/27 07:21:47;;;;;;;9.63;1.65;;;;;;;9.03;94.09;102042.41;5036263;28;20045;-78
2022/01/27 07:24:14;;;;;;;4.15;1.20;;;;;;;9.01;93.97;102050.19;5033325;28;20036;-78
2022/01/27 07:26:41;;;;;;;16.45;2.25;;;;;;;9.00;93.79;102056.81;5017558;28;20045;-78
2022/01/27 07:29:08;;;;;;;9.63;1.80;;;;;;;8.99;93.69;102069.00;5035860;28;20045;-78
2022/01/27 07:31:35;;;;;;;8.55;2.13;;;;;;;8.96;93.45;102086.19;5034699;28;20044;-78
2022/01/27 07:34:01;;;;;;;11.35;1.15;;;;;;;8.93;92.94;102083.19;5035616;28;20116;-78
2022/01/27 07:36:31;;;;;;;5.80;1.00;;;;;;;8.94;92.89;102082.91;5019112;28;20044;-77
2022/01/27 07:38:58;;;;;;;5.90;1.30;;;;;;;8.94;92.67;102082.91;5035125;28;20033;-78
2022/01/27 07:41:25;;;;;;;3.83;1.30;;;;;;;8.96;92.14;102091.72;5036005;28;20049;-78
2022/01/27 07:43:52;;;;;;;7.07;1.20;;;;;;;8.96;91.92;102097.22;5032581;28;20060;-78
2022/01/27 07:46:19;;;;;;;7.43;2.65;;;;;;;8.97;91.37;102114.63;5029497;28;20040;-78
2022/01/27 07:48:46;;;;;;;6.85;1.05;;;;;;;8.96;90.78;102122.09;5036636;28;20129;-78
2022/01/27 07:51:13;;;;;;;4.85;1.15;;;;;;;8.97;91.11;102120.97;5029284;28;20048;-77
2022/01/27 07:53:43;;;;;;;12.13;2.58;;;;;;;8.99;90.90;102106.84;5009970;28;20040;-78
2022/01/27 07:56:29;;;;;;;10.27;1.20;;;;;;;8.97;90.54;102117.41;5031020;28;20057;-77
2022/01/27 07:58:56;;;;;;;6.80;1.20;;;;;;;8.93;90.29;102114.41;5037035;28;20045;-78
2022/01/27 08:01:24;;;;;;;7.63;0.77;;;;;;;8.89;90.11;102135.47;5040106;28;20038;-77
2022/01/27 08:03:51;;;;;;;6.50;1.33;;;;;;;8.86;89.94;102147.13;5038061;28;20040;-77
2022/01/27 08:06:22;;;;;;;6.90;2.65;;;;;;;8.85;89.52;102141.88;5039954;28;20112;-78
2022/01/27 08:08:51;;;;;;;6.38;1.50;;;;;;;8.86;89.60;102154.56;5042309;28;20160;-78
2022/01/27 08:11:19;;;;;;;7.70;1.60;;;;;;;8.87;89.58;102153.47;5040460;28;20128;-77
2022/01/27 08:13:46;;;;;;;14.20;1.35;;;;;;;8.87;88.81;102159.00;5037380;28;20036;-77
2022/01/27 08:16:13;;;;;;;11.82;1.80;;;;;;;8.87;89.14;102159.78;5034665;28;20077;-78
2022/01/27 08:18:45;;;;;;;10.90;2.05;;;;;;;8.87;88.94;102164.50;5036228;28;20128;-78
2022/01/27 08:21:13;;;;;;;6.63;1.67;;;;;;;8.88;88.90;102178.00;5038506;28;20044;-77
2022/01/27 08:23:42;;;;;;;9.68;1.65;;;;;;;8.89;88.69;102178.84;5038003;28;20107;-77
2022/01/27 08:26:13;;;;;;;5.65;1.90;;;;;;;8.89;88.65;102179.66;5039070;28;20069;-77
2022/01/27 08:28:49;;;;;;;6.78;1.33;;;;;;;8.89;88.61;102189.88;5039315;28;20509;-79
2022/01/27 08:31:16;;;;;;;11.68;2.20;;;;;;;8.89;88.56;102193.47;5035752;28;20041;-78
2022/01/27 08:33:44;;;;;;;6.80;1.48;;;;;;;8.88;88.43;102189.06;5029175;28;20056;-77
2022/01/27 08:36:11;;;;;;;6.38;1.92;;;;;;;8.87;88.58;102195.69;5037363;28;20125;-77
2022/01/27 08:38:43;;;;;;;8.27;3.17;;;;;;;8.85;88.53;102206.22;5040334;28;20049;-78
2022/01/27 08:41:10;;;;;;;10.93;1.98;;;;;;;8.85;88.63;102200.69;5022298;28;20409;-78
2022/01/27 08:43:37;;;;;;;10.98;2.75;;;;;;;8.84;88.64;102193.50;5038187;28;20036;-78
2022/01/27 08:46:11;;;;;;;5.80;1.50;;;;;;;8.85;88.87;102205.38;5039937;28;20088;-78
2022/01/27 08:48:41;;;;;;;6.13;1.85;;;;;;;8.86;88.84;102213.41;5035740;28;20571;-77
2022/01/27 08:51:10;;;;;;;18.85;3.20;;;;;;;8.86;88.88;102205.09;5041166;28;20028;-78
2022/01/27 08:53:57;;;;;;;8.15;1.98;;;;;;;8.85;88.87;102211.75;5040152;28;20037;-78
2022/01/27 08:56:24;;;;;;;6.53;2.00;;;;;;;8.85;88.83;102208.97;5040525;28;20045;-77
2022/01/27 08:58:51;;;;;;;7.30;2.33;;;;;;;8.87;89.03;102209.50;5037239;28;20042;-78
2022/01/27 09:01:18;;;;;;;9.32;2.03;;;;;;;8.90;89.11;102214.44;5035814;28;20092;-79
2022/01/27 09:03:46;;;;;;;5.20;2.15;;;;;;;8.91;89.10;102213.31;5037321;28;20478;-78
2022/01/27 09:06:13;;;;;;;5.70;1.80;;;;;;;8.91;89.24;102232.66;5036668;28;20083;-77
2022/01/27 09:08:41;;;;;;;9.05;1.95;;;;;;;8.88;89.28;102232.41;5037831;28;20114;-77
2022/01/27 09:11:08;;;;;;;10.63;2.47;;;;;;;8.91;89.31;102246.47;5040529;28;20091;-78
2022/01/27 09:13:36;;;;;;;16.70;2.40;;;;;;;8.95;89.63;102239.22;5030109;28;20055;-77
2022/01/27 09:16:03;;;;;;;9.00;1.92;;;;;;;9.01;89.63;102240.78;5035498;28;20470;-77
2022/01/27 09:18:30;;;;;;;9.18;1.98;;;;;;;9.05;89.48;102239.06;5037040;28;20066;-77
2022/01/27 09:20:59;;;;;;;12.07;1.95;;;;;;;9.08;89.60;102244.00;5038647;28;20049;-77
2022/01/27 09:23:27;;;;;;;8.52;1.58;;;;;;;9.10;89.93;102258.34;5038471;28;20045;-77
2022/01/27 09:26:01;;;;;;;6.53;1.45;;;;;;;9.08;89.91;102246.75;5036411;28;20431;-77
2022/01/27 09:28:28;;;;;;;6.53;1.88;;;;;;;9.14;89.73;102255.78;5039260;28;20055;-77
2022/01/27 09:30:56;;;;;;;22.58;3.50;;;;;;;9.10;89.71;102247.28;5038749;28;20033;-78
2022/01/27 09:33:23;;;;;;;17.02;2.22;;;;;;;9.11;89.60;102262.72;5038220;28;20045;-78
2022/01/27 09:35:50;;;;;;;10.88;2.17;;;;;;;9.09;89.77;102262.22;5037606;28;20049;-78
2022/01/27 09:38:18;;;;;;;9.25;2.05;;;;;;;9.07;89.83;102267.22;5035659;28;20124;-78
2022/01/27 09:40:49;;;;;;;9.07;1.80;;;;;;;9.07;89.88;102264.47;5040138;28;20041;-78
2022/01/27 09:43:17;;;;;;;14.20;2.63;;;;;;;9.02;89.98;102283.06;5036389;28;20106;-78
2022/01/27 09:45:44;;;;;;;10.32;2.85;;;;;;;9.01;90.26;102271.19;5016723;28;20376;-79
2022/01/27 09:48:14;;;;;;;7.72;1.83;;;;;;;9.06;90.46;102279.38;5034937;28;20061;-79
2022/01/27 09:50:49;;;;;;;11.60;3.03;;;;;;;9.08;90.54;102287.41;5038443;28;20045;-78
2022/01/27 09:53:17;;;;;;;10.20;1.77;;;;;;;9.06;90.38;102293.19;5033856;28;20099;-78
2022/01/27 09:55:44;;;;;;;9.73;1.60;;;;;;;9.02;90.33;102285.81;5037484;28;20053;-79
2022/01/27 09:58:11;;;;;;;8.82;1.70;;;;;;;9.00;90.44;102291.63;5022326;28;20068;-78
2022/01/27 10:00:38;;;;;;;11.38;1.95;;;;;;;9.01;90.59;102296.03;5037605;28;20049;-78
2022/01/27 10:03:13;;;;;;;15.38;2.83;;;;;;;9.00;90.65;102293.59;5037566;28;20486;-79
2022/01/27 10:05:43;;;;;;;12.55;2.30;;;;;;;8.98;90.50;102287.50;5038395;28;20044;-79
2022/01/27 10:08:16;;;;;;;14.77;2.90;;;;;;;8.97;90.61;102275.66;5038909;28;20510;-79
2022/01/27 10:10:53;;;;;;;20.23;2.85;;;;;;;8.97;90.69;102285.88;5036393;28;20707;-79
2022/01/27 10:13:35;;;;;;;6.05;1.60;;;;;;;8.92;90.40;102288.72;5035644;28;20091;-78
2022/01/27 10:16:02;;;;;;;11.15;2.08;;;;;;;8.91;90.46;102301.69;5037704;28;20048;-78
2022/01/27 10:18:35;;;;;;;8.73;1.52;;;;;;;8.97;90.66;102314.34;5039322;28;20456;-79
2022/01/27 10:21:06;;;;;;;13.40;2.13;;;;;;;9.05;90.61;102310.09;5038316;28;20124;-78
2022/01/27 10:23:37;;;;;;;8.55;2.00;;;;;;;9.12;90.54;102316.88;5037801;28;20069;-78
2022/01/27 10:26:15;;;;;;;16.80;3.63;;;;;;;9.21;90.61;102318.97;5038017;28;20033;-79
2022/01/27 10:29:32;;;;;;;7.82;1.55;;;;;;;9.23;90.10;102327.78;5037091;28;20052;-78
2022/01/27 10:31:45;;;;;;;10.70;2.60;;;;;;;9.26;90.24;102327.19;5036621;28;20044;-78
2022/01/27 10:34:14;;;;;;;6.20;1.77;;;;;;;9.31;90.38;102343.72;5035947;28;20041;-78
2022/01/27 10:36:44;;;;;;;11.32;2.00;;;;;;;9.35;90.17;102351.09;5037180;28;20044;-78
2022/01/27 10:39:15;;;;;;;7.70;1.98;;;;;;;9.36;89.52;102346.41;5036861;28;20062;-78
2022/01/27 10:41:59;;;;;;;8.63;2.72;;;;;;;9.41;89.55;102358.22;5035450;28;20036;-78
2022/01/27 10:44:36;;;;;;;11.57;2.15;;;;;;;9.44;89.17;102359.56;5049339;28;20417;-77
2022/01/27 10:47:10;;;;;;;11.52;2.78;;;;;;;9.47;89.38;102357.03;5036418;28;20053;-78
2022/01/27 10:49:59;;;;;;;15.65;3.92;;;;;;;9.47;89.28;102356.19;5039278;28;20037;-77
2022/01/27 10:52:47;;;;;;;8.57;1.55;;;;;;;9.49;89.17;102354.78;5036451;28;20581;-78
2022/01/27 10:55:18;;;;;;;13.18;1.38;;;;;;;9.55;89.02;102363.81;5035257;28;20037;-78
2022/01/27 10:57:52;;;;;;;14.23;1.83;;;;;;;9.60;89.13;102372.03;5037545;28;20041;-78
2022/01/27 11:00:22;;;;;;;8.93;1.67;;;;;;;9.57;88.35;102364.34;5018453;28;20052;-78
2022/01/27 11:03:01;;;;;;;6.03;1.60;;;;;;;9.57;88.36;102367.94;5017120;28;20041;-78
2022/01/27 11:05:31;;;;;;;6.32;1.42;;;;;;;9.58;88.02;102364.03;5039353;28;20035;-78
2022/01/27 11:07:58;;;;;;;5.43;2.20;;;;;;;9.63;88.24;102377.81;5036927;28;20835;-78
2022/01/27 11:10:27;;;;;;;5.45;1.30;;;;;;;9.67;88.09;102372.47;5037409;28;20486;-78
2022/01/27 11:12:56;;;;;;;19.80;3.88;;;;;;;9.71;87.81;102374.34;5035254;28;20133;-79
2022/01/27 11:15:24;;;;;;;6.53;1.30;;;;;;;9.67;86.95;102380.78;5018698;28;20052;-78
2022/01/27 11:17:54;;;;;;;8.27;2.00;;;;;;;9.71;87.24;102390.13;5034787;28;20041;-77
2022/01/27 11:26:09;;;;;;;5.68;1.25;;;;;;;9.75;86.48;102403.03;5035010;28;20051;-78
2022/01/27 11:28:43;;;;;;;5.50;1.08;;;;;;;9.72;85.93;102403.66;5038233;28;20512;-77
2022/01/27 11:31:13;;;;;;;6.47;1.42;;;;;;;9.72;86.21;102406.41;5036011;28;20039;-77
2022/01/27 11:33:44;;;;;;;8.75;1.50;;;;;;;9.66;85.80;102404.03;5032972;28;20501;-78
2022/01/27 11:36:16;;;;;;;8.40;0.90;;;;;;;9.50;85.13;102397.06;5036851;28;20587;-78
2022/01/27 11:38:45;;;;;;;2.80;0.52;;;;;;;9.42;85.67;102392.22;5036907;28;20706;-78
2022/01/27 11:41:39;;;;;;;10.75;1.42;;;;;;;9.38;85.49;102393.91;5038889;28;20045;-77
2022/01/27 11:44:36;;;;;;;5.85;1.50;;;;;;;9.41;85.43;102396.06;5036752;28;20471;-78
2022/01/27 11:47:10;;;;;;;6.10;1.25;;;;;;;9.43;85.40;102391.06;5037023;28;20056;-78
2022/01/27 11:49:56;;;;;;;6.38;1.10;;;;;;;9.44;85.10;102384.44;5035559;28;20087;-78
2022/01/27 11:52:47;;;;;;;14.57;1.25;;;;;;;9.43;85.09;102394.66;5032054;28;20482;-78
2022/01/27 11:55:23;;;;;;;7.85;2.67;;;;;;;9.47;85.08;102408.72;5019287;28;20041;-78
2022/01/27 11:58:11;;;;;;;9.07;2.67;;;;;;;9.46;85.05;102396.84;5035164;28;20044;-78
2022/01/27 12:00:39;;;;;;;6.85;1.85;;;;;;;9.48;85.22;102393.75;5033180;28;20053;-78
2022/01/27 12:03:09;;;;;;;13.48;1.15;;;;;;;9.48;84.68;102413.09;5030673;28;20032;-78
2022/01/27 12:05:39;;;;;;;6.28;0.88;;;;;;;9.50;84.59;102416.44;5036104;28;20084;-78
2022/01/27 12:08:12;;;;;;;3.35;1.20;;;;;;;9.51;84.63;102407.00;5035194;28;20042;-78
2022/01/27 12:10:44;;;;;;;5.78;1.17;;;;;;;9.55;84.66;102399.75;5035457;28;20045;-77
2022/01/27 12:13:34;;;;;;;4.55;0.85;;;;;;;9.56;84.17;102415.22;5037364;28;20034;-78
2022/01/27 12:16:40;;;;;;;3.50;0.90;;;;;;;9.56;83.05;102409.69;5037678;28;20136;-77
2022/01/27 12:19:22;;;;;;;6.53;3.60;;;;;;;9.61;83.82;102412.41;5037087;28;20045;-78
2022/01/27 12:21:54;;;;;;;5.88;1.33;;;;;;;9.62;83.56;102414.84;5032880;28;20483;-78
2022/01/27 12:24:28;;;;;;;7.45;1.70;;;;;;;9.65;83.48;102408.75;5033461;28;20547;-78
2022/01/27 12:27:18;;;;;;;5.75;0.90;;;;;;;9.69;83.39;102411.69;5048893;28;20115;-78
2022/01/27 12:30:09;;;;;;;6.38;0.95;;;;;;;9.74;83.44;102415.22;5033282;28;20064;-78
2022/01/27 12:32:36;;;;;;;3.50;1.35;;;;;;;9.79;83.72;102414.34;5035696;28;20479;-79
2022/01/27 12:35:08;;;;;;;5.47;0.93;;;;;;;9.83;83.60;102415.38;5036281;28;20037;-78
2022/01/27 12:37:37;;;;;;;3.03;0.60;;;;;;;9.84;83.18;102419.81;5036275;28;20045;-78
2022/01/27 12:40:15;;;;;;;1.50;0.40;;;;;;;9.79;83.04;102419.88;5033379;28;20034;-78
2022/01/27 12:42:59;;;;;;;3.08;0.95;;;;;;;9.80;83.33;102425.09;5032734;28;20079;-78
2022/01/27 12:45:31;;;;;;;10.05;0.90;;;;;;;9.82;83.12;102431.16;5040595;28;20103;-78
2022/01/27 12:48:05;;;;;;;1.52;0.88;;;;;;;9.81;82.62;102428.69;5040140;28;20045;-78
2022/01/27 12:50:34;;;;;;;2.97;0.50;;;;;;;9.87;82.46;102427.50;5038154;28;20068;-79
2022/01/27 12:53:09;;;;;;;3.17;0.60;;;;;;;9.87;82.27;102432.22;5040580;28;20125;-78
2022/01/27 12:55:39;;;;;;;5.25;0.73;;;;;;;9.92;82.59;102434.91;5035632;28;20060;-79
2022/01/27 12:58:18;;;;;;;5.43;0.60;;;;;;;9.96;82.26;102441.47;5039584;28;20128;-79
2022/01/27 13:00:51;;;;;;;2.78;0.82;;;;;;;9.94;80.92;102432.66;5036031;28;20045;-78
2022/01/27 13:03:21;;;;;;;1.77;0.50;;;;;;;9.99;81.63;102438.94;5041056;28;20055;-78
2022/01/27 13:05:53;;;;;;;4.72;0.65;;;;;;;10.03;81.15;102442.75;5038063;28;20041;-78
2022/01/27 13:08:25;;;;;;;4.10;0.50;;;;;;;10.07;80.85;102443.78;5038745;28;20056;-78
2022/01/27 13:10:59;;;;;;;5.40;1.42;;;;;;;10.04;79.26;102440.78;5038245;28;20496;-78
2022/01/27 13:13:31;;;;;;;5.55;0.70;;;;;;;10.10;80.37;102440.41;5040327;28;20040;-78
2022/01/27 13:16:02;;;;;;;7.22;0.63;;;;;;;10.15;80.11;102429.28;5031508;28;20096;-78
2022/01/27 13:18:42;;;;;;;4.07;0.80;;;;;;;10.19;79.72;102424.00;5054239;28;20041;-78
2022/01/27 13:21:29;;;;;;;5.03;0.55;;;;;;;10.25;79.10;102434.66;5038432;28;20043;-78
2022/01/27 13:24:07;;;;;;;4.55;0.47;;;;;;;10.30;79.06;102434.56;5032843;28;20042;-78
2022/01/27 13:26:36;;;;;;;2.30;0.40;;;;;;;10.42;79.65;102445.19;5050653;28;20036;-78